sensor_id;sensor_type;location;lat;lon;timestamp;temperature;humidity
4615;DHT22;2320;51.362;6.946;2022-12-18T00:02:04;-1.40;99.90
4615;DHT22;2320;51.362;6.946;2022-12-18T00:04:29;-1.40;99.90
4615;DHT22;2320;51.362;6.946;2022-12-18T00:06:55;-1.30;99.90
4615;DHT22;2320;51.362;6.946;2022-12-18T00:09:20;-1.30;99.90
4615;DHT22;2320;51.362;6.946;2022-12-18T00:11:46;-1.40;99.90
4615;DHT22;2320;51.362;6.946;2022-12-18T00:14:12;-1.30;99.90
4615;DHT22;2320;51.362;6.946;2022-12-18T00:16:37;-1.30;99.90
4615;DHT22;2320;51.362;6.946;2022-12-18T00:19:03;-1.50;99.90
4615;DHT22;2320;51.362;6.946;2022-12-18T00:21:30;-1.40;99.90
4615;DHT22;2320;51.362;6.946;2022-12-18T00:23:56;-1.40;99.90
4615;DHT22;2320;51.362;6.946;2022-12-18T00:26:23;-1.30;99.90
4615;DHT22;2320;51.362;6.946;2022-12-18T00:28:49;-1.40;99.90
4615;DHT22;2320;51.362;6.946;2022-12-18T00:31:15;-1.30;99.90
4615;DHT22;2320;51.362;6.946;2022-12-18T00:33:41;-1.30;99.90
4615;DHT22;2320;51.362;6.946;2022-12-18T00:36:08;-1.30;99.90
4615;DHT22;2320;51.362;6.946;2022-12-18T00:38:34;-1.30;99.90
4615;DHT22;2320;51.362;6.946;2022-12-18T00:41:00;-1.30;99.90
4615;DHT22;2320;51.362;6.946;2022-12-18T00:43:25;-1.30;99.90
4615;DHT22;2320;51.362;6.946;2022-12-18T00:45:51;-1.20;99.90
4615;DHT22;2320;51.362;6.946;2022-12-18T00:48:16;-1.20;99.90
4615;DHT22;2320;51.362;6.946;2022-12-18T00:50:42;-1.30;99.90
4615;DHT22;2320;51.362;6.946;2022-12-18T00:53:07;-1.20;99.90
4615;DHT22;2320;51.362;6.946;2022-12-18T00:55:39;-1.20;99.90
4615;DHT22;2320;51.362;6.946;2022-12-18T00:58:04;-1.10;99.90
4615;DHT22;2320;51.362;6.946;2022-12-18T01:00:30;-1.20;99.90
4615;DHT22;2320;51.362;6.946;2022-12-18T01:02:55;-1.10;99.90
4615;DHT22;2320;51.362;6.946;2022-12-18T01:05:21;-1.00;99.90
4615;DHT22;2320;51.362;6.946;2022-12-18T01:07:46;-1.10;99.90
4615;DHT22;2320;51.362;6.946;2022-12-18T01:10:12;-1.00;99.90
4615;DHT22;2320;51.362;6.946;2022-12-18T01:12:38;-0.90;99.90
4615;DHT22;2320;51.362;6.946;2022-12-18T01:15:04;-1.00;99.90
4615;DHT22;2320;51.362;6.946;2022-12-18T01:17:30;-1.00;99.90
4615;DHT22;2320;51.362;6.946;2022-12-18T01:19:56;-1.00;99.90
4615;DHT22;2320;51.362;6.946;2022-12-18T01:22:21;-1.00;99.90
4615;DHT22;2320;51.362;6.946;2022-12-18T01:24:47;-1.00;99.90
4615;DHT22;2320;51.362;6.946;2022-12-18T01:27:12;-1.00;99.90
4615;DHT22;2320;51.362;6.946;2022-12-18T01:29:38;-1.00;99.90
4615;DHT22;2320;51.362;6.946;2022-12-18T01:32:03;-1.00;99.90
4615;DHT22;2320;51.362;6.946;2022-12-18T01:34:29;-1.00;99.90
4615;DHT22;2320;51.362;6.946;2022-12-18T01:36:54;-0.90;99.90
4615;DHT22;2320;51.362;6.946;2022-12-18T01:39:20;-0.90;99.90
4615;DHT22;2320;51.362;6.946;2022-12-18T01:41:45;-0.90;99.90
4615;DHT22;2320;51.362;6.946;2022-12-18T01:47:15;-0.90;99.90
4615;DHT22;2320;51.362;6.946;2022-12-18T01:49:40;-0.90;99.90
4615;DHT22;2320;51.362;6.946;2022-12-18T01:52:07;-0.90;99.90
4615;DHT22;2320;51.362;6.946;2022-12-18T01:54:32;-0.90;99.90
4615;DHT22;2320;51.362;6.946;2022-12-18T01:56:58;-0.90;99.90
4615;DHT22;2320;51.362;6.946;2022-12-18T01:59:24;-0.90;99.90
4615;DHT22;2320;51.362;6.946;2022-12-18T02:01:49;-0.80;99.90
4615;DHT22;2320;51.362;6.946;2022-12-18T02:04:21;-0.90;99.90
4615;DHT22;2320;51.362;6.946;2022-12-18T02:06:49;-0.80;99.90
4615;DHT22;2320;51.362;6.946;2022-12-18T02:09:21;-0.80;99.90
4615;DHT22;2320;51.362;6.946;2022-12-18T02:11:51;-0.80;99.90
4615;DHT22;2320;51.362;6.946;2022-12-18T02:14:28;-0.70;99.90
4615;DHT22;2320;51.362;6.946;2022-12-18T02:17:01;-0.70;99.90
4615;DHT22;2320;51.362;6.946;2022-12-18T02:19:36;-0.70;99.90
4615;DHT22;2320;51.362;6.946;2022-12-18T02:27:31;-0.80;99.90
4615;DHT22;2320;51.362;6.946;2022-12-18T02:29:57;-0.70;99.90
4615;DHT22;2320;51.362;6.946;2022-12-18T02:32:25;-0.70;99.90
4615;DHT22;2320;51.362;6.946;2022-12-18T02:34:52;-0.70;99.90
4615;DHT22;2320;51.362;6.946;2022-12-18T02:37:19;-0.70;99.90
4615;DHT22;2320;51.362;6.946;2022-12-18T02:39:46;-0.70;99.90
4615;DHT22;2320;51.362;6.946;2022-12-18T02:42:13;-0.70;99.90
4615;DHT22;2320;51.362;6.946;2022-12-18T02:44:43;-0.60;99.90
4615;DHT22;2320;51.362;6.946;2022-12-18T02:47:13;-0.60;99.90
4615;DHT22;2320;51.362;6.946;2022-12-18T02:52:18;-0.70;99.90
4615;DHT22;2320;51.362;6.946;2022-12-18T02:57:23;-0.60;99.90
4615;DHT22;2320;51.362;6.946;2022-12-18T02:59:54;-0.60;99.90
4615;DHT22;2320;51.362;6.946;2022-12-18T03:02:24;-0.60;99.90
4615;DHT22;2320;51.362;6.946;2022-12-18T03:05:03;-0.60;99.90
4615;DHT22;2320;51.362;6.946;2022-12-18T03:07:35;-0.60;99.90
4615;DHT22;2320;51.362;6.946;2022-12-18T03:10:02;-0.50;99.90
4615;DHT22;2320;51.362;6.946;2022-12-18T03:12:30;-0.50;99.90
4615;DHT22;2320;51.362;6.946;2022-12-18T03:14:59;-0.60;99.90
4615;DHT22;2320;51.362;6.946;2022-12-18T03:17:27;-0.60;99.90
4615;DHT22;2320;51.362;6.946;2022-12-18T03:19:53;-0.50;99.90
4615;DHT22;2320;51.362;6.946;2022-12-18T03:22:21;-0.60;99.90
4615;DHT22;2320;51.362;6.946;2022-12-18T03:24:48;-0.60;99.90
4615;DHT22;2320;51.362;6.946;2022-12-18T03:27:14;-0.60;99.90
4615;DHT22;2320;51.362;6.946;2022-12-18T03:29:44;-0.50;99.90
4615;DHT22;2320;51.362;6.946;2022-12-18T03:32:11;-0.50;99.90
4615;DHT22;2320;51.362;6.946;2022-12-18T03:34:38;-0.60;99.90
4615;DHT22;2320;51.362;6.946;2022-12-18T03:37:04;-0.60;99.90
4615;DHT22;2320;51.362;6.946;2022-12-18T03:39:30;-0.60;99.90
4615;DHT22;2320;51.362;6.946;2022-12-18T03:50:11;-0.50;99.90
4615;DHT22;2320;51.362;6.946;2022-12-18T03:52:38;-0.50;99.90
4615;DHT22;2320;51.362;6.946;2022-12-18T03:55:05;-0.60;99.90
4615;DHT22;2320;51.362;6.946;2022-12-18T03:57:32;-0.50;99.90
4615;DHT22;2320;51.362;6.946;2022-12-18T04:00:06;-0.50;99.90
4615;DHT22;2320;51.362;6.946;2022-12-18T04:02:33;-0.50;99.90
4615;DHT22;2320;51.362;6.946;2022-12-18T04:05:00;-0.50;99.90
4615;DHT22;2320;51.362;6.946;2022-12-18T04:07:27;-0.60;99.90
4615;DHT22;2320;51.362;6.946;2022-12-18T04:09:54;-0.50;99.90
4615;DHT22;2320;51.362;6.946;2022-12-18T04:12:23;-0.50;99.90
4615;DHT22;2320;51.362;6.946;2022-12-18T04:14:49;-0.50;99.90
4615;DHT22;2320;51.362;6.946;2022-12-18T04:17:14;-0.50;99.90
4615;DHT22;2320;51.362;6.946;2022-12-18T04:19:40;-0.50;99.90
4615;DHT22;2320;51.362;6.946;2022-12-18T04:22:05;-0.50;99.90
4615;DHT22;2320;51.362;6.946;2022-12-18T04:24:30;-0.50;99.90
4615;DHT22;2320;51.362;6.946;2022-12-18T04:26:56;-0.50;99.90
4615;DHT22;2320;51.362;6.946;2022-12-18T04:29:21;-0.50;99.90
4615;DHT22;2320;51.362;6.946;2022-12-18T04:31:47;-0.50;99.90
4615;DHT22;2320;51.362;6.946;2022-12-18T04:34:12;-0.50;99.90
4615;DHT22;2320;51.362;6.946;2022-12-18T04:36:38;-0.50;99.90
4615;DHT22;2320;51.362;6.946;2022-12-18T04:39:03;-0.50;99.90
4615;DHT22;2320;51.362;6.946;2022-12-18T04:41:29;-0.60;99.90
4615;DHT22;2320;51.362;6.946;2022-12-18T04:43:54;-0.60;99.90
4615;DHT22;2320;51.362;6.946;2022-12-18T04:46:19;-0.50;99.90
4615;DHT22;2320;51.362;6.946;2022-12-18T04:48:45;-0.60;99.90
4615;DHT22;2320;51.362;6.946;2022-12-18T04:51:11;-0.60;99.90
4615;DHT22;2320;51.362;6.946;2022-12-18T04:53:37;-0.60;99.90
4615;DHT22;2320;51.362;6.946;2022-12-18T04:56:06;-0.70;99.90
4615;DHT22;2320;51.362;6.946;2022-12-18T04:58:32;-0.80;99.90
4615;DHT22;2320;51.362;6.946;2022-12-18T05:00:57;-0.70;99.90
4615;DHT22;2320;51.362;6.946;2022-12-18T05:03:23;-0.90;99.90
4615;DHT22;2320;51.362;6.946;2022-12-18T05:05:51;-1.10;99.90
4615;DHT22;2320;51.362;6.946;2022-12-18T05:08:17;-1.30;99.90
4615;DHT22;2320;51.362;6.946;2022-12-18T05:10:42;-1.30;99.90
4615;DHT22;2320;51.362;6.946;2022-12-18T05:13:08;-1.60;99.90
4615;DHT22;2320;51.362;6.946;2022-12-18T05:15:34;-1.90;99.90
4615;DHT22;2320;51.362;6.946;2022-12-18T05:17:59;-2.20;99.90
4615;DHT22;2320;51.362;6.946;2022-12-18T05:20:25;-2.40;99.90
4615;DHT22;2320;51.362;6.946;2022-12-18T05:22:51;-2.60;99.90
4615;DHT22;2320;51.362;6.946;2022-12-18T05:25:17;-2.70;99.90
4615;DHT22;2320;51.362;6.946;2022-12-18T05:27:43;-2.80;99.90
4615;DHT22;2320;51.362;6.946;2022-12-18T05:30:09;-3.00;99.90
4615;DHT22;2320;51.362;6.946;2022-12-18T05:32:34;-2.90;99.90
4615;DHT22;2320;51.362;6.946;2022-12-18T05:35:00;-3.00;99.90
4615;DHT22;2320;51.362;6.946;2022-12-18T05:37:25;-3.00;99.90
4615;DHT22;2320;51.362;6.946;2022-12-18T05:39:51;-3.10;99.90
4615;DHT22;2320;51.362;6.946;2022-12-18T05:42:16;-3.30;99.90
4615;DHT22;2320;51.362;6.946;2022-12-18T05:44:42;-3.50;99.90
4615;DHT22;2320;51.362;6.946;2022-12-18T05:47:08;-3.40;99.90
4615;DHT22;2320;51.362;6.946;2022-12-18T05:49:33;-3.40;99.90
4615;DHT22;2320;51.362;6.946;2022-12-18T05:51:59;-3.50;99.90
4615;DHT22;2320;51.362;6.946;2022-12-18T05:54:26;-3.50;99.90
4615;DHT22;2320;51.362;6.946;2022-12-18T05:56:52;-3.60;99.90
4615;DHT22;2320;51.362;6.946;2022-12-18T05:59:17;-3.70;99.90
4615;DHT22;2320;51.362;6.946;2022-12-18T06:01:43;-3.90;99.90
4615;DHT22;2320;51.362;6.946;2022-12-18T06:04:08;-4.10;99.90
4615;DHT22;2320;51.362;6.946;2022-12-18T06:06:34;-4.00;99.90
4615;DHT22;2320;51.362;6.946;2022-12-18T06:08:59;-4.10;99.90
4615;DHT22;2320;51.362;6.946;2022-12-18T06:11:26;-4.10;99.90
4615;DHT22;2320;51.362;6.946;2022-12-18T06:13:53;-4.20;99.90
4615;DHT22;2320;51.362;6.946;2022-12-18T06:16:18;-4.20;99.90
4615;DHT22;2320;51.362;6.946;2022-12-18T06:18:44;-4.20;99.90
4615;DHT22;2320;51.362;6.946;2022-12-18T06:21:09;-4.30;99.90
4615;DHT22;2320;51.362;6.946;2022-12-18T06:23:35;-4.30;99.90
4615;DHT22;2320;51.362;6.946;2022-12-18T06:26:08;-4.20;99.90
4615;DHT22;2320;51.362;6.946;2022-12-18T06:28:33;-4.40;99.90
4615;DHT22;2320;51.362;6.946;2022-12-18T06:30:59;-4.40;99.90
4615;DHT22;2320;51.362;6.946;2022-12-18T06:33:27;-4.30;99.90
4615;DHT22;2320;51.362;6.946;2022-12-18T06:35:53;-4.40;99.90
4615;DHT22;2320;51.362;6.946;2022-12-18T06:38:19;-4.30;99.90
4615;DHT22;2320;51.362;6.946;2022-12-18T06:40:45;-4.40;99.90
4615;DHT22;2320;51.362;6.946;2022-12-18T06:43:10;-4.40;99.90
4615;DHT22;2320;51.362;6.946;2022-12-18T06:45:35;-4.30;99.90
4615;DHT22;2320;51.362;6.946;2022-12-18T06:48:01;-4.40;99.90
4615;DHT22;2320;51.362;6.946;2022-12-18T06:50:27;-4.40;99.90
4615;DHT22;2320;51.362;6.946;2022-12-18T06:52:52;-4.40;99.90
4615;DHT22;2320;51.362;6.946;2022-12-18T06:55:18;-4.30;99.90
4615;DHT22;2320;51.362;6.946;2022-12-18T06:57:43;-4.40;99.90
4615;DHT22;2320;51.362;6.946;2022-12-18T07:00:09;-4.20;99.90
4615;DHT22;2320;51.362;6.946;2022-12-18T07:02:34;-4.00;99.90
4615;DHT22;2320;51.362;6.946;2022-12-18T07:05:00;-3.60;99.90
4615;DHT22;2320;51.362;6.946;2022-12-18T07:07:25;-3.50;99.90
4615;DHT22;2320;51.362;6.946;2022-12-18T07:09:51;-3.20;99.90
4615;DHT22;2320;51.362;6.946;2022-12-18T07:12:17;-2.90;99.90
4615;DHT22;2320;51.362;6.946;2022-12-18T07:14:42;-2.50;99.90
4615;DHT22;2320;51.362;6.946;2022-12-18T07:17:08;-2.10;99.90
4615;DHT22;2320;51.362;6.946;2022-12-18T07:19:33;-1.80;99.90
4615;DHT22;2320;51.362;6.946;2022-12-18T07:21:59;-1.40;99.90
4615;DHT22;2320;51.362;6.946;2022-12-18T07:24:24;-1.30;99.90
4615;DHT22;2320;51.362;6.946;2022-12-18T07:26:50;-1.10;99.90
4615;DHT22;2320;51.362;6.946;2022-12-18T07:29:15;-1.00;99.90
4615;DHT22;2320;51.362;6.946;2022-12-18T07:31:41;-0.90;99.90
4615;DHT22;2320;51.362;6.946;2022-12-18T07:34:09;-1.00;99.90
4615;DHT22;2320;51.362;6.946;2022-12-18T07:36:35;-0.80;99.90
4615;DHT22;2320;51.362;6.946;2022-12-18T07:39:00;-0.70;99.90
4615;DHT22;2320;51.362;6.946;2022-12-18T07:41:26;-0.60;99.90
4615;DHT22;2320;51.362;6.946;2022-12-18T07:43:51;-0.40;99.90
4615;DHT22;2320;51.362;6.946;2022-12-18T07:46:17;-0.20;99.90
4615;DHT22;2320;51.362;6.946;2022-12-18T07:48:43;-0.10;99.90
4615;DHT22;2320;51.362;6.946;2022-12-18T07:51:09;0.00;99.90
4615;DHT22;2320;51.362;6.946;2022-12-18T07:53:35;0.10;99.90
4615;DHT22;2320;51.362;6.946;2022-12-18T07:56:02;0.20;99.90
4615;DHT22;2320;51.362;6.946;2022-12-18T07:58:28;0.20;99.90
4615;DHT22;2320;51.362;6.946;2022-12-18T08:00:54;0.40;99.90
4615;DHT22;2320;51.362;6.946;2022-12-18T08:03:19;0.40;99.90
4615;DHT22;2320;51.362;6.946;2022-12-18T08:05:45;0.30;99.90
4615;DHT22;2320;51.362;6.946;2022-12-18T08:08:10;0.40;99.90
4615;DHT22;2320;51.362;6.946;2022-12-18T08:10:36;0.40;99.90
4615;DHT22;2320;51.362;6.946;2022-12-18T08:13:02;0.50;99.90
4615;DHT22;2320;51.362;6.946;2022-12-18T08:15:27;0.60;99.90
4615;DHT22;2320;51.362;6.946;2022-12-18T08:17:56;0.60;99.90
4615;DHT22;2320;51.362;6.946;2022-12-18T08:20:21;0.70;99.90
4615;DHT22;2320;51.362;6.946;2022-12-18T08:22:46;0.70;99.90
4615;DHT22;2320;51.362;6.946;2022-12-18T08:25:12;0.80;99.90
4615;DHT22;2320;51.362;6.946;2022-12-18T08:27:38;0.80;99.90
4615;DHT22;2320;51.362;6.946;2022-12-18T08:30:03;0.90;99.90
4615;DHT22;2320;51.362;6.946;2022-12-18T08:32:29;0.90;99.90
4615;DHT22;2320;51.362;6.946;2022-12-18T08:34:55;1.10;99.90
4615;DHT22;2320;51.362;6.946;2022-12-18T08:37:20;1.10;99.90
4615;DHT22;2320;51.362;6.946;2022-12-18T08:39:45;1.20;99.90
4615;DHT22;2320;51.362;6.946;2022-12-18T08:42:11;1.30;99.90
4615;DHT22;2320;51.362;6.946;2022-12-18T08:44:55;1.30;99.90
4615;DHT22;2320;51.362;6.946;2022-12-18T08:47:20;1.40;99.90
4615;DHT22;2320;51.362;6.946;2022-12-18T08:49:46;1.50;99.90
4615;DHT22;2320;51.362;6.946;2022-12-18T08:52:11;1.50;99.90
4615;DHT22;2320;51.362;6.946;2022-12-18T08:54:37;1.60;99.90
4615;DHT22;2320;51.362;6.946;2022-12-18T08:57:02;1.60;99.90
4615;DHT22;2320;51.362;6.946;2022-12-18T08:59:28;1.80;99.90
4615;DHT22;2320;51.362;6.946;2022-12-18T09:01:54;1.90;99.90
4615;DHT22;2320;51.362;6.946;2022-12-18T09:04:20;2.00;99.90
4615;DHT22;2320;51.362;6.946;2022-12-18T09:06:46;2.10;99.90
4615;DHT22;2320;51.362;6.946;2022-12-18T09:09:11;2.40;99.90
4615;DHT22;2320;51.362;6.946;2022-12-18T09:11:37;2.50;99.90
4615;DHT22;2320;51.362;6.946;2022-12-18T09:14:03;2.80;99.90
4615;DHT22;2320;51.362;6.946;2022-12-18T09:16:28;2.60;99.90
4615;DHT22;2320;51.362;6.946;2022-12-18T09:18:54;2.60;99.90
4615;DHT22;2320;51.362;6.946;2022-12-18T09:21:25;2.70;99.90
4615;DHT22;2320;51.362;6.946;2022-12-18T09:23:51;2.80;99.90
4615;DHT22;2320;51.362;6.946;2022-12-18T09:26:17;2.70;99.90
4615;DHT22;2320;51.362;6.946;2022-12-18T09:28:42;2.80;99.90
4615;DHT22;2320;51.362;6.946;2022-12-18T09:31:08;2.70;99.90
4615;DHT22;2320;51.362;6.946;2022-12-18T09:33:36;2.60;99.90
4615;DHT22;2320;51.362;6.946;2022-12-18T09:36:03;2.60;99.90
4615;DHT22;2320;51.362;6.946;2022-12-18T09:38:29;2.60;99.90
4615;DHT22;2320;51.362;6.946;2022-12-18T09:43:43;2.70;99.90
4615;DHT22;2320;51.362;6.946;2022-12-18T09:46:11;2.90;99.90
4615;DHT22;2320;51.362;6.946;2022-12-18T09:48:42;2.80;99.90
4615;DHT22;2320;51.362;6.946;2022-12-18T09:51:16;3.00;99.90
4615;DHT22;2320;51.362;6.946;2022-12-18T09:53:44;3.00;99.90
4615;DHT22;2320;51.362;6.946;2022-12-18T09:56:12;3.10;99.90
4615;DHT22;2320;51.362;6.946;2022-12-18T09:58:46;3.20;99.90
4615;DHT22;2320;51.362;6.946;2022-12-18T10:01:23;3.30;99.90
4615;DHT22;2320;51.362;6.946;2022-12-18T10:03:49;3.30;99.90
4615;DHT22;2320;51.362;6.946;2022-12-18T10:06:19;3.20;99.90
4615;DHT22;2320;51.362;6.946;2022-12-18T10:08:49;3.20;99.90
4615;DHT22;2320;51.362;6.946;2022-12-18T10:11:28;3.10;99.90
4615;DHT22;2320;51.362;6.946;2022-12-18T10:14:08;3.20;99.90
4615;DHT22;2320;51.362;6.946;2022-12-18T10:19:17;3.20;99.90
4615;DHT22;2320;51.362;6.946;2022-12-18T10:26:41;3.30;99.90
4615;DHT22;2320;51.362;6.946;2022-12-18T10:29:11;3.30;99.90
4615;DHT22;2320;51.362;6.946;2022-12-18T10:31:37;3.40;99.90
4615;DHT22;2320;51.362;6.946;2022-12-18T10:34:02;3.60;99.90
4615;DHT22;2320;51.362;6.946;2022-12-18T10:36:28;3.60;99.90
4615;DHT22;2320;51.362;6.946;2022-12-18T10:38:54;3.70;99.90
4615;DHT22;2320;51.362;6.946;2022-12-18T10:41:25;3.80;99.90
4615;DHT22;2320;51.362;6.946;2022-12-18T10:44:15;3.80;99.90
4615;DHT22;2320;51.362;6.946;2022-12-18T10:46:37;3.80;99.90
4615;DHT22;2320;51.362;6.946;2022-12-18T10:49:03;3.90;99.90
4615;DHT22;2320;51.362;6.946;2022-12-18T10:51:31;3.90;99.90
4615;DHT22;2320;51.362;6.946;2022-12-18T10:53:59;4.00;99.90
4615;DHT22;2320;51.362;6.946;2022-12-18T10:56:26;4.00;99.90
4615;DHT22;2320;51.362;6.946;2022-12-18T10:59:11;4.00;99.90
4615;DHT22;2320;51.362;6.946;2022-12-18T11:01:47;4.10;99.90
4615;DHT22;2320;51.362;6.946;2022-12-18T11:04:18;4.10;99.90
4615;DHT22;2320;51.362;6.946;2022-12-18T11:09:23;3.90;99.90
4615;DHT22;2320;51.362;6.946;2022-12-18T11:11:53;4.00;99.90
4615;DHT22;2320;51.362;6.946;2022-12-18T11:14:23;4.00;99.90
4615;DHT22;2320;51.362;6.946;2022-12-18T11:16:49;4.00;99.90
4615;DHT22;2320;51.362;6.946;2022-12-18T11:21:50;4.10;99.90
4615;DHT22;2320;51.362;6.946;2022-12-18T11:26:47;4.30;99.90
4615;DHT22;2320;51.362;6.946;2022-12-18T11:29:16;4.40;99.90
4615;DHT22;2320;51.362;6.946;2022-12-18T11:31:42;4.60;99.90
4615;DHT22;2320;51.362;6.946;2022-12-18T11:34:12;4.70;99.90
4615;DHT22;2320;51.362;6.946;2022-12-18T11:36:43;4.70;99.90
4615;DHT22;2320;51.362;6.946;2022-12-18T11:39:31;4.50;99.90
4615;DHT22;2320;51.362;6.946;2022-12-18T11:41:59;4.30;99.90
4615;DHT22;2320;51.362;6.946;2022-12-18T11:44:42;4.50;99.90
4615;DHT22;2320;51.362;6.946;2022-12-18T11:49:36;4.30;99.90
4615;DHT22;2320;51.362;6.946;2022-12-18T11:54:46;4.30;99.90
4615;DHT22;2320;51.362;6.946;2022-12-18T12:10:54;4.50;99.90
4615;DHT22;2320;51.362;6.946;2022-12-18T12:13:23;4.50;99.90
4615;DHT22;2320;51.362;6.946;2022-12-18T12:21:26;4.20;99.90
4615;DHT22;2320;51.362;6.946;2022-12-18T12:24:02;4.10;99.90
4615;DHT22;2320;51.362;6.946;2022-12-18T12:32:39;4.20;99.90
4615;DHT22;2320;51.362;6.946;2022-12-18T12:40:07;3.90;99.90
4615;DHT22;2320;51.362;6.946;2022-12-18T12:45:22;3.90;99.90
4615;DHT22;2320;51.362;6.946;2022-12-18T12:47:48;3.90;99.90
4615;DHT22;2320;51.362;6.946;2022-12-18T12:50:18;4.10;99.90
4615;DHT22;2320;51.362;6.946;2022-12-18T12:52:46;3.80;99.90
4615;DHT22;2320;51.362;6.946;2022-12-18T12:55:14;3.90;99.90
4615;DHT22;2320;51.362;6.946;2022-12-18T12:57:41;4.00;99.90
4615;DHT22;2320;51.362;6.946;2022-12-18T13:07:47;3.70;99.90
4615;DHT22;2320;51.362;6.946;2022-12-18T13:13:12;3.90;99.90
4615;DHT22;2320;51.362;6.946;2022-12-18T13:15:48;3.90;99.90
4615;DHT22;2320;51.362;6.946;2022-12-18T13:20:44;3.90;99.90
4615;DHT22;2320;51.362;6.946;2022-12-18T13:25:45;3.70;99.90
4615;DHT22;2320;51.362;6.946;2022-12-18T13:28:12;3.50;99.90
4615;DHT22;2320;51.362;6.946;2022-12-18T13:35:39;3.40;99.90
4615;DHT22;2320;51.362;6.946;2022-12-18T13:45:44;3.10;99.90
4615;DHT22;2320;51.362;6.946;2022-12-18T13:48:17;2.90;99.90
4615;DHT22;2320;51.362;6.946;2022-12-18T13:50:43;2.90;99.90
4615;DHT22;2320;51.362;6.946;2022-12-18T13:53:19;2.70;99.90
4615;DHT22;2320;51.362;6.946;2022-12-18T13:55:45;2.70;99.90
4615;DHT22;2320;51.362;6.946;2022-12-18T13:58:11;2.70;99.90
4615;DHT22;2320;51.362;6.946;2022-12-18T14:00:40;2.70;99.90
4615;DHT22;2320;51.362;6.946;2022-12-18T14:03:15;2.70;99.90
4615;DHT22;2320;51.362;6.946;2022-12-18T14:05:41;2.60;99.90
4615;DHT22;2320;51.362;6.946;2022-12-18T14:08:15;2.70;99.90
4615;DHT22;2320;51.362;6.946;2022-12-18T14:10:47;2.60;99.90
4615;DHT22;2320;51.362;6.946;2022-12-18T14:13:33;2.70;99.90
4615;DHT22;2320;51.362;6.946;2022-12-18T14:16:01;2.60;99.90
4615;DHT22;2320;51.362;6.946;2022-12-18T14:18:33;2.50;99.90
4615;DHT22;2320;51.362;6.946;2022-12-18T14:21:02;2.60;99.90
4615;DHT22;2320;51.362;6.946;2022-12-18T14:23:30;2.60;99.90
4615;DHT22;2320;51.362;6.946;2022-12-18T14:25:56;2.60;99.90
4615;DHT22;2320;51.362;6.946;2022-12-18T14:28:22;2.70;99.90
4615;DHT22;2320;51.362;6.946;2022-12-18T14:30:47;2.80;99.90
4615;DHT22;2320;51.362;6.946;2022-12-18T14:33:23;2.90;99.90
4615;DHT22;2320;51.362;6.946;2022-12-18T14:35:59;2.90;99.90
4615;DHT22;2320;51.362;6.946;2022-12-18T14:40:54;2.80;99.90
4615;DHT22;2320;51.362;6.946;2022-12-18T14:43:20;2.80;99.90
4615;DHT22;2320;51.362;6.946;2022-12-18T14:45:46;2.80;99.90
4615;DHT22;2320;51.362;6.946;2022-12-18T14:48:19;2.70;99.90
4615;DHT22;2320;51.362;6.946;2022-12-18T14:50:45;2.70;99.90
4615;DHT22;2320;51.362;6.946;2022-12-18T14:53:20;2.70;99.90
4615;DHT22;2320;51.362;6.946;2022-12-18T14:55:46;2.70;99.90
4615;DHT22;2320;51.362;6.946;2022-12-18T14:58:13;2.60;99.90
4615;DHT22;2320;51.362;6.946;2022-12-18T15:00:40;2.60;99.90
4615;DHT22;2320;51.362;6.946;2022-12-18T15:03:06;2.50;99.90
4615;DHT22;2320;51.362;6.946;2022-12-18T15:05:32;2.50;99.90
4615;DHT22;2320;51.362;6.946;2022-12-18T15:07:58;2.50;99.90
4615;DHT22;2320;51.362;6.946;2022-12-18T15:10:25;2.40;99.90
4615;DHT22;2320;51.362;6.946;2022-12-18T15:17:59;2.40;99.90
4615;DHT22;2320;51.362;6.946;2022-12-18T15:20:25;2.40;99.90
4615;DHT22;2320;51.362;6.946;2022-12-18T15:22:51;2.40;99.90
4615;DHT22;2320;51.362;6.946;2022-12-18T15:25:25;2.50;99.90
4615;DHT22;2320;51.362;6.946;2022-12-18T15:27:52;2.50;99.90
4615;DHT22;2320;51.362;6.946;2022-12-18T15:30:19;2.30;99.90
4615;DHT22;2320;51.362;6.946;2022-12-18T15:32:44;2.30;99.90
4615;DHT22;2320;51.362;6.946;2022-12-18T15:37:36;2.20;99.90
4615;DHT22;2320;51.362;6.946;2022-12-18T15:40:01;2.20;99.90
4615;DHT22;2320;51.362;6.946;2022-12-18T15:42:27;2.10;99.90
4615;DHT22;2320;51.362;6.946;2022-12-18T15:45:12;2.10;99.90
4615;DHT22;2320;51.362;6.946;2022-12-18T15:47:38;2.20;99.90
4615;DHT22;2320;51.362;6.946;2022-12-18T15:50:03;2.10;99.90
4615;DHT22;2320;51.362;6.946;2022-12-18T15:52:29;2.10;99.90
4615;DHT22;2320;51.362;6.946;2022-12-18T15:54:55;2.10;99.90
4615;DHT22;2320;51.362;6.946;2022-12-18T15:57:39;2.20;99.90
4615;DHT22;2320;51.362;6.946;2022-12-18T16:00:04;2.10;99.90
4615;DHT22;2320;51.362;6.946;2022-12-18T16:02:30;2.30;99.90
4615;DHT22;2320;51.362;6.946;2022-12-18T16:04:55;2.10;99.90
4615;DHT22;2320;51.362;6.946;2022-12-18T16:07:21;2.00;99.90
4615;DHT22;2320;51.362;6.946;2022-12-18T16:09:46;2.00;99.90
4615;DHT22;2320;51.362;6.946;2022-12-18T16:12:19;2.10;99.90
4615;DHT22;2320;51.362;6.946;2022-12-18T16:14:45;2.10;99.90
4615;DHT22;2320;51.362;6.946;2022-12-18T16:17:11;2.00;99.90
4615;DHT22;2320;51.362;6.946;2022-12-18T16:19:37;2.00;99.90
4615;DHT22;2320;51.362;6.946;2022-12-18T16:22:03;2.00;99.90
4615;DHT22;2320;51.362;6.946;2022-12-18T16:24:29;1.90;99.90
4615;DHT22;2320;51.362;6.946;2022-12-18T16:26:56;1.90;99.90
4615;DHT22;2320;51.362;6.946;2022-12-18T16:29:23;1.90;99.90
4615;DHT22;2320;51.362;6.946;2022-12-18T16:31:52;1.90;99.90
4615;DHT22;2320;51.362;6.946;2022-12-18T16:34:19;1.90;99.90
4615;DHT22;2320;51.362;6.946;2022-12-18T16:36:48;1.90;99.90
4615;DHT22;2320;51.362;6.946;2022-12-18T16:39:14;1.90;99.90
4615;DHT22;2320;51.362;6.946;2022-12-18T16:41:39;1.80;99.90
4615;DHT22;2320;51.362;6.946;2022-12-18T16:44:05;1.80;99.90
4615;DHT22;2320;51.362;6.946;2022-12-18T16:46:30;1.80;99.90
4615;DHT22;2320;51.362;6.946;2022-12-18T16:48:59;1.80;99.90
4615;DHT22;2320;51.362;6.946;2022-12-18T16:51:27;1.70;99.90
4615;DHT22;2320;51.362;6.946;2022-12-18T16:53:55;1.70;99.90
4615;DHT22;2320;51.362;6.946;2022-12-18T16:56:21;1.70;99.90
4615;DHT22;2320;51.362;6.946;2022-12-18T16:58:52;1.60;99.90
4615;DHT22;2320;51.362;6.946;2022-12-18T17:01:18;1.60;99.90
4615;DHT22;2320;51.362;6.946;2022-12-18T17:03:49;1.60;99.90
4615;DHT22;2320;51.362;6.946;2022-12-18T17:06:15;1.60;99.90
4615;DHT22;2320;51.362;6.946;2022-12-18T17:08:41;1.50;99.90
4615;DHT22;2320;51.362;6.946;2022-12-18T17:11:06;1.50;99.90
4615;DHT22;2320;51.362;6.946;2022-12-18T17:13:32;1.40;99.90
4615;DHT22;2320;51.362;6.946;2022-12-18T17:16:01;1.40;99.90
4615;DHT22;2320;51.362;6.946;2022-12-18T17:18:27;1.50;99.90
4615;DHT22;2320;51.362;6.946;2022-12-18T17:20:57;1.40;99.90
4615;DHT22;2320;51.362;6.946;2022-12-18T17:23:22;1.40;99.90
4615;DHT22;2320;51.362;6.946;2022-12-18T17:25:48;1.40;99.90
4615;DHT22;2320;51.362;6.946;2022-12-18T17:28:13;1.50;99.90
4615;DHT22;2320;51.362;6.946;2022-12-18T17:30:39;1.40;99.90
4615;DHT22;2320;51.362;6.946;2022-12-18T17:33:04;1.50;99.90
4615;DHT22;2320;51.362;6.946;2022-12-18T17:35:30;1.40;99.90
4615;DHT22;2320;51.362;6.946;2022-12-18T17:37:55;1.50;99.90
4615;DHT22;2320;51.362;6.946;2022-12-18T17:40:21;1.40;99.90
4615;DHT22;2320;51.362;6.946;2022-12-18T17:42:46;1.40;99.90
4615;DHT22;2320;51.362;6.946;2022-12-18T17:45:12;1.40;99.90
4615;DHT22;2320;51.362;6.946;2022-12-18T17:47:37;1.30;99.90
4615;DHT22;2320;51.362;6.946;2022-12-18T17:50:03;1.30;99.90
4615;DHT22;2320;51.362;6.946;2022-12-18T17:52:29;1.20;99.90
4615;DHT22;2320;51.362;6.946;2022-12-18T17:54:54;1.20;99.90
4615;DHT22;2320;51.362;6.946;2022-12-18T17:57:20;1.10;99.90
4615;DHT22;2320;51.362;6.946;2022-12-18T17:59:46;1.10;99.90
4615;DHT22;2320;51.362;6.946;2022-12-18T18:02:12;1.10;99.90
4615;DHT22;2320;51.362;6.946;2022-12-18T18:04:37;1.10;99.90
4615;DHT22;2320;51.362;6.946;2022-12-18T18:07:03;1.10;99.90